Time;durP1;ratioP1;P1;durP2;ratioP2;P2;SDS_P1;SDS_P2;PMS_P1;PMS_P2;Temp;Humidity;BMP_temperature;BMP_pressure;BME280_temperature;BME280_humidity;BME280_pressure;Samples;Min_cycle;Max_cycle;Signal;HPM_P1;HPM_P2
2022/06/15 00:01:42;;;;;;;1999.90;999.90;;;18.30;99.90;;;;;;4954674;28;20260;-74
2022/06/15 00:04:08;;;;;;;1999.90;999.90;;;18.20;99.90;;;;;;4954562;28;20198;-73
2022/06/15 00:06:38;;;;;;;1999.90;999.90;;;18.10;99.90;;;;;;4954285;28;20425;-74
2022/06/15 00:09:03;;;;;;;1999.90;999.90;;;18.10;99.90;;;;;;4954661;28;20176;-74
2022/06/15 00:11:35;;;;;;;1999.90;999.90;;;18.00;99.90;;;;;;4954531;28;20895;-74
2022/06/15 00:14:10;;;;;;;1999.90;999.90;;;18.00;99.90;;;;;;4954431;28;20636;-74
2022/06/15 00:16:36;;;;;;;1999.90;999.90;;;18.00;99.90;;;;;;4954150;28;20433;-74
2022/06/15 00:19:04;;;;;;;1999.90;999.90;;;17.90;99.90;;;;;;4954507;28;20418;-74
2022/06/15 00:21:30;;;;;;;1999.90;999.90;;;17.80;99.90;;;;;;4954476;28;20419;-74
2022/06/15 00:23:57;;;;;;;1999.90;999.90;;;17.70;99.90;;;;;;4954264;28;20456;-73
2022/06/15 00:26:23;;;;;;;1999.90;999.90;;;17.50;99.90;;;;;;4953927;28;20882;-74
2022/06/15 00:28:51;;;;;;;1999.90;999.90;;;17.40;99.90;;;;;;4954259;28;20435;-73
2022/06/15 00:31:17;;;;;;;1999.90;999.90;;;17.40;99.90;;;;;;4954389;28;20436;-73
2022/06/15 00:33:43;;;;;;;1999.90;999.90;;;17.30;99.90;;;;;;4954202;28;20965;-73
2022/06/15 00:36:12;;;;;;;1999.90;999.90;;;17.40;99.90;;;;;;4953660;28;20449;-73
2022/06/15 00:38:44;;;;;;;1999.90;999.90;;;17.40;99.90;;;;;;4954200;28;20554;-73
2022/06/15 00:41:13;;;;;;;1999.90;999.90;;;17.40;99.90;;;;;;4954039;28;20945;-73
2022/06/15 00:43:43;;;;;;;1999.90;999.90;;;17.50;99.90;;;;;;4954020;28;20456;-73
2022/06/15 00:46:18;;;;;;;1999.90;999.90;;;17.50;99.90;;;;;;4953723;28;20568;-73
2022/06/15 00:48:46;;;;;;;1999.90;999.90;;;17.40;99.90;;;;;;4953992;28;20417;-73
2022/06/15 00:51:14;;;;;;;1999.90;999.90;;;17.20;99.90;;;;;;4953966;28;20407;-73
2022/06/15 00:53:40;;;;;;;1999.90;999.90;;;17.10;99.90;;;;;;4953982;28;20417;-73
2022/06/15 00:56:08;;;;;;;1999.90;999.90;;;17.00;99.90;;;;;;4953740;28;20455;-73
2022/06/15 00:58:36;;;;;;;1999.90;999.90;;;16.90;99.90;;;;;;4953765;28;20708;-73
2022/06/15 01:01:02;;;;;;;1999.90;999.90;;;16.80;99.90;;;;;;4953942;28;20394;-74
2022/06/15 01:03:28;;;;;;;1999.90;999.90;;;16.70;99.90;;;;;;4953882;28;20457;-74
2022/06/15 01:06:27;;;;;;;1999.90;999.90;;;16.60;99.90;;;;;;4953766;28;20191;-74
2022/06/15 01:09:20;;;;;;;1999.90;999.90;;;16.70;99.90;;;;;;4953889;28;20170;-74
2022/06/15 01:12:07;;;;;;;1999.90;999.90;;;16.60;99.90;;;;;;4953797;28;20490;-74
2022/06/15 01:15:08;;;;;;;1999.90;999.90;;;16.60;99.90;;;;;;4953774;28;20405;-74
2022/06/15 01:17:39;;;;;;;1999.90;999.90;;;16.50;99.90;;;;;;4953102;29;20400;-74
2022/06/15 01:20:40;;;;;;;1999.90;999.90;;;16.60;99.90;;;;;;4953812;28;20401;-74
2022/06/15 01:23:26;;;;;;;1999.90;999.90;;;16.60;99.90;;;;;;4950671;29;20468;-74
2022/06/15 01:26:07;;;;;;;1999.90;999.90;;;16.60;99.90;;;;;;4946333;29;20442;-74
2022/06/15 01:28:55;;;;;;;1999.90;999.90;;;16.50;99.90;;;;;;4955822;28;20402;-73
2022/06/15 01:31:35;;;;;;;1999.90;999.90;;;16.50;99.90;;;;;;4957400;28;20399;-73
2022/06/15 01:34:27;;;;;;;1999.90;999.90;;;16.50;99.90;;;;;;4957486;28;20413;-74
2022/06/15 01:37:09;;;;;;;1999.90;999.90;;;16.40;99.90;;;;;;4956199;28;20509;-73
2022/06/15 01:39:56;;;;;;;1999.90;999.90;;;16.40;99.90;;;;;;4953492;28;20416;-73
2022/06/15 01:42:30;;;;;;;1999.90;999.90;;;16.10;99.90;;;;;;4953555;28;20379;-73
2022/06/15 01:45:01;;;;;;;1999.90;999.90;;;16.00;99.90;;;;;;4953513;28;20465;-73
2022/06/15 01:47:30;;;;;;;1999.90;999.90;;;15.90;99.90;;;;;;4953134;28;20418;-73
2022/06/15 01:50:08;;;;;;;1999.90;999.90;;;15.80;99.90;;;;;;4953380;28;20779;-73
2022/06/15 01:52:45;;;;;;;1999.90;999.90;;;15.80;99.90;;;;;;4952433;29;20441;-73
2022/06/15 01:55:44;;;;;;;1999.90;999.90;;;15.80;99.90;;;;;;4953287;28;20435;-73
2022/06/15 01:58:12;;;;;;;1999.90;999.90;;;15.80;99.90;;;;;;4953061;28;20936;-73
2022/06/15 02:00:39;;;;;;;1999.90;999.90;;;15.80;99.90;;;;;;4953350;28;20418;-73
2022/06/15 02:03:25;;;;;;;1999.90;999.90;;;15.80;99.90;;;;;;4953284;28;20564;-73
2022/06/15 02:06:16;;;;;;;1999.90;999.90;;;15.80;99.90;;;;;;4953170;28;20506;-73
2022/06/15 02:08:47;;;;;;;1999.90;999.90;;;15.70;99.90;;;;;;4953346;28;20407;-73
2022/06/15 02:11:21;;;;;;;1999.90;999.90;;;15.60;99.90;;;;;;4956668;28;20403;-73
2022/06/15 02:13:56;;;;;;;1999.90;999.90;;;15.60;99.90;;;;;;4956876;28;20403;-73
2022/06/15 02:16:40;;;;;;;1999.90;999.90;;;15.50;99.90;;;;;;4956326;28;20820;-73
2022/06/15 02:19:11;;;;;;;1999.90;999.90;;;15.50;99.90;;;;;;4956605;28;20829;-73
2022/06/15 02:21:39;;;;;;;1999.90;999.90;;;15.50;99.90;;;;;;4956609;28;20413;-73
2022/06/15 02:24:06;;;;;;;1999.90;999.90;;;15.50;99.90;;;;;;4956553;28;20495;-73
2022/06/15 02:26:36;;;;;;;1999.90;999.90;;;15.50;99.90;;;;;;4956071;28;20431;-73
2022/06/15 02:29:09;;;;;;;1999.90;999.90;;;15.30;99.90;;;;;;4956451;28;20402;-73
2022/06/15 02:31:37;;;;;;;1999.90;999.90;;;15.20;99.90;;;;;;4956354;28;20411;-73
2022/06/15 02:34:04;;;;;;;1999.90;999.90;;;15.00;99.90;;;;;;4956528;28;20814;-73
2022/06/15 02:36:32;;;;;;;1999.90;999.90;;;15.00;99.90;;;;;;4955784;28;20475;-73
2022/06/15 02:38:58;;;;;;;1999.90;999.90;;;14.90;99.90;;;;;;4956221;28;20521;-73
2022/06/15 02:41:25;;;;;;;1999.90;999.90;;;14.90;99.90;;;;;;4956187;28;20902;-73
2022/06/15 02:43:55;;;;;;;1999.90;999.90;;;14.80;99.90;;;;;;4955972;28;20501;-73
2022/06/15 02:46:23;;;;;;;1999.90;999.90;;;14.80;99.90;;;;;;4955656;28;20429;-73
2022/06/15 02:48:49;;;;;;;1999.90;999.90;;;14.70;99.90;;;;;;4956033;28;20409;-73
2022/06/15 02:51:15;;;;;;;1999.90;999.90;;;14.70;99.90;;;;;;4956027;28;20409;-73
2022/06/15 02:53:42;;;;;;;1999.90;999.90;;;14.70;99.90;;;;;;4955852;28;20403;-73
2022/06/15 02:56:10;;;;;;;1999.90;999.90;;;14.70;99.90;;;;;;4955654;28;20257;-73
2022/06/15 02:58:40;;;;;;;1999.90;999.90;;;14.60;99.90;;;;;;4955761;28;20421;-73
2022/06/15 03:01:06;;;;;;;1999.90;999.90;;;14.60;99.90;;;;;;4955854;28;20409;-73
2022/06/15 03:03:33;;;;;;;1999.90;999.90;;;14.60;99.90;;;;;;4955679;28;20462;-73
2022/06/15 03:05:59;;;;;;;1999.90;999.90;;;14.60;99.90;;;;;;4955396;28;20434;-73
2022/06/15 03:08:25;;;;;;;1999.90;999.90;;;14.60;99.90;;;;;;4955659;28;20500;-73
2022/06/15 03:10:53;;;;;;;1999.90;999.90;;;14.50;99.90;;;;;;4955636;28;20195;-73
2022/06/15 03:13:19;;;;;;;1999.90;999.90;;;14.40;99.90;;;;;;4955565;28;20500;-73
2022/06/15 03:15:46;;;;;;;1999.90;999.90;;;14.40;99.90;;;;;;4955712;28;20466;-73
2022/06/15 03:18:11;;;;;;;1999.90;999.90;;;14.30;99.90;;;;;;4955219;28;20428;-73
2022/06/15 03:20:37;;;;;;;1999.90;999.90;;;14.30;99.90;;;;;;4955210;28;20486;-73
2022/06/15 03:23:06;;;;;;;1999.90;999.90;;;14.30;99.90;;;;;;4957400;28;20185;-74
2022/06/15 03:25:36;;;;;;;1999.90;999.90;;;14.30;99.90;;;;;;4958518;28;20663;-74
2022/06/15 03:28:02;;;;;;;1999.90;999.90;;;14.20;99.90;;;;;;4957560;28;20406;-74
2022/06/15 03:30:27;;;;;;;1999.90;999.90;;;14.20;99.90;;;;;;4960095;28;20786;-74
2022/06/15 03:32:53;;;;;;;1999.90;999.90;;;14.10;99.90;;;;;;4957890;28;20169;-73
2022/06/15 03:35:19;;;;;;;1999.90;999.90;;;14.00;99.90;;;;;;4957567;28;20706;-74
2022/06/15 03:37:45;;;;;;;1999.90;999.90;;;13.90;99.90;;;;;;4958963;28;20168;-74
2022/06/15 03:40:11;;;;;;;1999.90;999.90;;;13.80;99.90;;;;;;4959217;28;20667;-74
2022/06/15 03:42:40;;;;;;;1999.90;999.90;;;13.80;99.90;;;;;;4959671;28;20507;-74
2022/06/15 03:45:06;;;;;;;1999.90;999.90;;;13.80;99.90;;;;;;4959596;28;20465;-74
2022/06/15 03:47:32;;;;;;;1999.90;999.90;;;13.90;99.90;;;;;;4959053;28;20411;-74
2022/06/15 03:49:58;;;;;;;1999.90;999.90;;;14.00;99.90;;;;;;4959352;28;20417;-73
2022/06/15 03:52:25;;;;;;;1999.90;999.90;;;14.00;99.90;;;;;;4960868;28;20169;-74
2022/06/15 03:54:51;;;;;;;1999.90;999.90;;;14.10;99.90;;;;;;4961235;28;20171;-74
2022/06/15 03:57:19;;;;;;;1999.90;999.90;;;14.10;99.90;;;;;;4961688;28;20515;-74
2022/06/15 03:59:45;;;;;;;1999.90;999.90;;;14.20;99.90;;;;;;4962115;28;20520;-74
2022/06/15 04:02:11;;;;;;;1999.90;999.90;;;14.10;99.90;;;;;;4962567;28;20417;-74
2022/06/15 04:04:37;;;;;;;1999.90;999.90;;;14.10;99.90;;;;;;4963322;28;20542;-74
2022/06/15 04:07:05;;;;;;;1999.90;999.90;;;14.10;99.90;;;;;;4962029;28;20242;-74
2022/06/15 04:09:31;;;;;;;1999.90;999.90;;;14.30;99.90;;;;;;4961412;28;20420;-73
2022/06/15 04:12:01;;;;;;;1999.90;999.90;;;14.30;99.90;;;;;;4960814;28;20496;-74
2022/06/15 04:14:31;;;;;;;1999.90;999.90;;;14.30;99.90;;;;;;4960796;28;20253;-74
2022/06/15 04:16:57;;;;;;;1999.90;999.90;;;14.40;99.90;;;;;;4958586;28;20526;-74
2022/06/15 04:19:26;;;;;;;1999.90;999.90;;;14.40;99.90;;;;;;4959947;28;20453;-74
2022/06/15 04:21:51;;;;;;;1999.90;999.90;;;14.50;99.90;;;;;;4959246;28;20413;-74
2022/06/15 04:24:18;;;;;;;1999.90;999.90;;;14.50;99.90;;;;;;4958647;28;20461;-74
2022/06/15 04:26:46;;;;;;;1999.90;999.90;;;14.50;99.90;;;;;;4957275;28;20205;-74
2022/06/15 04:29:12;;;;;;;1999.90;999.90;;;14.60;99.90;;;;;;4958059;28;20492;-74
2022/06/15 04:31:38;;;;;;;1999.90;999.90;;;14.70;99.90;;;;;;4957386;28;20449;-74
2022/06/15 04:34:09;;;;;;;1999.90;999.90;;;14.70;99.90;;;;;;4957062;28;20435;-74
2022/06/15 04:36:37;;;;;;;1999.90;999.90;;;14.80;99.90;;;;;;4956658;28;20460;-74
2022/06/15 04:39:03;;;;;;;1999.90;999.90;;;14.80;99.90;;;;;;4957175;28;20417;-74
2022/06/15 04:41:30;;;;;;;1999.90;999.90;;;14.90;99.90;;;;;;4956986;28;20453;-74
2022/06/15 04:43:56;;;;;;;1999.90;999.90;;;14.90;99.90;;;;;;4957520;28;20458;-74
2022/06/15 04:46:21;;;;;;;1999.90;999.90;;;15.00;99.90;;;;;;4958708;28;20481;-74
2022/06/15 04:48:48;;;;;;;1999.90;999.90;;;15.00;99.90;;;;;;4958046;28;20409;-72
2022/06/15 04:51:16;;;;;;;1999.90;999.90;;;15.10;99.90;;;;;;4959003;28;20172;-74
2022/06/15 04:53:42;;;;;;;1999.90;999.90;;;15.20;99.90;;;;;;4956168;29;20413;-74
2022/06/15 04:56:08;;;;;;;1999.90;999.90;;;15.30;99.90;;;;;;4954199;28;20830;-74
2022/06/15 04:58:33;;;;;;;1999.90;999.90;;;15.30;99.90;;;;;;4955069;28;20181;-74
2022/06/15 05:00:59;;;;;;;1999.90;999.90;;;15.40;99.90;;;;;;4954832;28;20178;-72
2022/06/15 05:03:25;;;;;;;1999.90;999.90;;;15.50;99.90;;;;;;4954618;28;20284;-74
2022/06/15 05:05:55;;;;;;;1999.90;999.90;;;15.50;99.90;;;;;;4954761;28;20186;-74
2022/06/15 05:08:20;;;;;;;1999.90;999.90;;;15.60;99.90;;;;;;4954741;28;20641;-74
2022/06/15 05:10:46;;;;;;;1999.90;999.90;;;15.70;99.90;;;;;;4955003;28;20402;-74
2022/06/15 05:13:12;;;;;;;1999.90;999.90;;;15.80;99.90;;;;;;4956701;28;20262;-74
2022/06/15 05:15:38;;;;;;;1999.90;999.90;;;15.90;99.90;;;;;;4958529;28;20529;-73
2022/06/15 05:18:06;;;;;;;1999.90;999.90;;;16.00;99.90;;;;;;4958232;28;20181;-73
2022/06/15 05:20:34;;;;;;;1999.90;999.90;;;16.00;99.90;;;;;;4958278;28;20443;-73
2022/06/15 05:23:00;;;;;;;1999.90;999.90;;;16.00;99.90;;;;;;4959186;28;20406;-73
2022/06/15 05:25:26;;;;;;;1999.90;999.90;;;16.00;99.90;;;;;;4958603;28;20950;-73
2022/06/15 05:27:52;;;;;;;1999.90;999.90;;;16.10;99.90;;;;;;4958492;28;20597;-73
2022/06/15 05:30:18;;;;;;;1999.90;999.90;;;16.20;99.90;;;;;;4958165;28;20407;-72
2022/06/15 05:32:44;;;;;;;1999.90;999.90;;;16.20;99.90;;;;;;4958292;28;20274;-73
2022/06/15 05:35:10;;;;;;;1999.90;999.90;;;16.30;99.90;;;;;;4956795;28;20416;-72
2022/06/15 05:37:36;;;;;;;1999.90;999.90;;;16.30;99.90;;;;;;4957148;28;20193;-73
2022/06/15 05:40:02;;;;;;;1999.90;999.90;;;16.30;99.90;;;;;;4957562;28;20398;-73
2022/06/15 05:42:28;;;;;;;1999.90;999.90;;;16.40;99.90;;;;;;4955792;29;20711;-73
2022/06/15 05:44:55;;;;;;;1999.90;999.90;;;16.40;99.90;;;;;;4956950;28;20532;-73
2022/06/15 05:47:20;;;;;;;1999.90;999.90;;;16.50;99.90;;;;;;4956766;28;20823;-73
2022/06/15 05:49:46;;;;;;;1999.90;999.90;;;16.60;99.90;;;;;;4955886;29;20407;-73
2022/06/15 05:52:12;;;;;;;1999.90;999.90;;;16.60;99.90;;;;;;4957311;28;20171;-73
2022/06/15 05:54:38;;;;;;;1999.90;999.90;;;16.70;99.90;;;;;;4957020;28;20265;-73
2022/06/15 05:57:30;;;;;;;1999.90;999.90;;;16.80;99.90;;;;;;4956586;28;20189;-73
2022/06/15 05:59:57;;;;;;;1999.90;999.90;;;16.90;99.90;;;;;;4954894;28;20429;-73
2022/06/15 06:02:24;;;;;;;1999.90;999.90;;;16.80;99.90;;;;;;4956955;28;20612;-73
2022/06/15 06:04:51;;;;;;;1999.90;999.90;;;16.90;99.90;;;;;;4956808;28;20451;-74
2022/06/15 06:07:18;;;;;;;1999.90;999.90;;;16.90;99.90;;;;;;4956487;28;20436;-74
2022/06/15 06:09:44;;;;;;;1999.90;999.90;;;17.00;99.90;;;;;;4956789;28;20829;-74
2022/06/15 06:12:10;;;;;;;1999.90;999.90;;;17.10;99.90;;;;;;4956692;28;20407;-74
2022/06/15 06:14:37;;;;;;;1999.90;999.90;;;17.10;99.90;;;;;;4956600;28;20641;-74
2022/06/15 06:17:07;;;;;;;1999.90;999.90;;;17.30;99.90;;;;;;4956229;28;20558;-74
2022/06/15 06:19:33;;;;;;;1999.90;999.90;;;17.40;99.90;;;;;;4956771;28;20783;-74
2022/06/15 06:21:59;;;;;;;1999.90;999.90;;;17.50;99.90;;;;;;4956569;28;20415;-74
2022/06/15 06:24:24;;;;;;;1999.90;999.90;;;17.60;99.90;;;;;;4956461;28;20204;-74
2022/06/15 06:27:00;;;;;;;1999.90;999.90;;;17.80;99.90;;;;;;4956090;28;20190;-74
2022/06/15 06:29:27;;;;;;;1999.90;999.90;;;17.90;99.90;;;;;;4956477;28;20529;-74
2022/06/15 06:31:53;;;;;;;1999.90;999.90;;;18.10;99.90;;;;;;4956297;28;20414;-75
2022/06/15 06:34:18;;;;;;;1999.90;999.90;;;18.20;99.90;;;;;;4956298;28;20407;-74
2022/06/15 06:36:45;;;;;;;1999.90;999.90;;;18.30;99.90;;;;;;4955975;28;20219;-73
2022/06/15 06:39:25;;;;;;;1999.90;999.90;;;18.30;99.90;;;;;;4956283;28;20179;-74
2022/06/15 06:41:51;;;;;;;1999.90;999.90;;;18.40;99.90;;;;;;4956191;28;20399;-74
2022/06/15 06:44:17;;;;;;;1999.90;999.90;;;18.50;99.90;;;;;;4956040;28;20452;-73
2022/06/15 06:46:45;;;;;;;1999.90;999.90;;;18.60;99.90;;;;;;4955757;28;20435;-74
2022/06/15 06:49:12;;;;;;;1999.90;999.90;;;18.70;99.90;;;;;;4956022;28;20407;-73
2022/06/15 06:51:38;;;;;;;1999.90;999.90;;;18.80;99.90;;;;;;4956085;28;20502;-74
2022/06/15 06:54:06;;;;;;;1999.90;999.90;;;18.80;99.90;;;;;;4955920;28;20409;-74
2022/06/15 06:56:34;;;;;;;1999.90;999.90;;;18.90;99.90;;;;;;4954974;28;20461;-74
2022/06/15 06:59:00;;;;;;;1999.90;999.90;;;19.00;99.90;;;;;;4955836;28;20425;-74
2022/06/15 07:01:25;;;;;;;1999.90;999.90;;;19.00;99.90;;;;;;4955900;28;20406;-74
2022/06/15 07:03:51;;;;;;;1999.90;999.90;;;19.10;99.90;;;;;;4956864;28;20189;-74
2022/06/15 07:06:17;;;;;;;1999.90;999.90;;;19.20;99.90;;;;;;4958650;29;20198;-73
2022/06/15 07:08:43;;;;;;;1999.90;999.90;;;19.30;99.90;;;;;;4960124;28;20642;-73
2022/06/15 07:11:10;;;;;;;1999.90;999.90;;;19.40;99.90;;;;;;4959765;28;20495;-74
2022/06/15 07:13:36;;;;;;;1999.90;999.90;;;19.50;99.90;;;;;;4959910;28;20174;-74
2022/06/15 07:16:10;;;;;;;1999.90;999.90;;;19.70;99.90;;;;;;4959828;28;20456;-73
2022/06/15 07:18:36;;;;;;;1999.90;999.90;;;19.70;99.90;;;;;;4961365;28;20384;-73
2022/06/15 07:21:07;;;;;;;1999.90;999.90;;;19.70;99.90;;;;;;4960852;28;21011;-73
2022/06/15 07:23:33;;;;;;;1999.90;999.90;;;19.70;99.90;;;;;;4959739;29;20332;-73
2022/06/15 07:26:06;;;;;;;1999.90;999.90;;;19.80;99.90;;;;;;4959549;28;20453;-73
2022/06/15 07:28:33;;;;;;;1999.90;999.90;;;19.80;99.90;;;;;;4960378;28;20393;-73
2022/06/15 07:30:59;;;;;;;1999.90;999.90;;;19.80;99.90;;;;;;4960341;28;20413;-73
2022/06/15 07:33:25;;;;;;;1999.90;999.90;;;19.80;99.90;;;;;;4960768;28;20417;-73
2022/06/15 07:35:51;;;;;;;1999.90;999.90;;;19.80;99.90;;;;;;4959882;28;20478;-73
2022/06/15 07:38:19;;;;;;;1999.90;999.90;;;19.90;99.90;;;;;;4959281;28;20414;-73
2022/06/15 07:40:46;;;;;;;1999.90;999.90;;;20.00;99.90;;;;;;4959488;28;20197;-73
2022/06/15 07:43:12;;;;;;;1999.90;999.90;;;20.10;99.90;;;;;;4959519;28;20418;-73
2022/06/15 07:45:38;;;;;;;1999.90;999.90;;;20.20;99.90;;;;;;4959233;28;20430;-73
2022/06/15 07:50:48;;;;;;;1999.90;999.90;;;20.40;99.90;;;;;;4958460;29;20194;-73
2022/06/15 07:53:15;;;;;;;1999.90;999.90;;;20.50;99.90;;;;;;4958097;28;20399;-74
2022/06/15 07:55:43;;;;;;;1999.90;999.90;;;20.60;99.90;;;;;;4954782;28;20329;-73
2022/06/15 07:58:10;;;;;;;1999.90;999.90;;;20.70;99.90;;;;;;4954492;28;20464;-74
2022/06/15 08:00:39;;;;;;;1999.90;999.90;;;20.80;99.90;;;;;;4954745;28;20418;-74
2022/06/15 08:03:04;;;;;;;1999.90;999.90;;;20.90;99.90;;;;;;4954484;28;20932;-73
2022/06/15 08:05:35;;;;;;;1999.90;999.90;;;21.00;99.90;;;;;;4954666;28;20404;-73
2022/06/15 08:08:03;;;;;;;1999.90;999.90;;;21.10;99.90;;;;;;4953505;28;20510;-73
2022/06/15 08:10:28;;;;;;;1999.90;999.90;;;21.20;99.90;;;;;;4954590;28;20393;-73
2022/06/15 08:12:55;;;;;;;1999.90;999.90;;;21.30;99.90;;;;;;4954536;28;20742;-74
2022/06/15 08:15:21;;;;;;;1999.90;999.90;;;21.40;99.90;;;;;;4954241;28;20180;-73
2022/06/15 08:17:51;;;;;;;1999.90;999.90;;;21.50;99.90;;;;;;4954170;28;20412;-74
2022/06/15 08:20:25;;;;;;;1999.90;999.90;;;21.30;99.90;;;;;;4954449;28;20424;-74
2022/06/15 08:22:55;;;;;;;1999.90;999.90;;;21.20;99.90;;;;;;4954505;28;20434;-74
2022/06/15 08:25:27;;;;;;;1999.90;999.90;;;21.20;99.90;;;;;;4954238;28;20467;-73
2022/06/15 08:27:54;;;;;;;1999.90;999.90;;;21.10;99.90;;;;;;4954020;28;20403;-74
2022/06/15 08:30:21;;;;;;;1999.90;999.90;;;21.20;99.90;;;;;;4954445;28;20486;-73
2022/06/15 08:32:46;;;;;;;1999.90;999.90;;;21.40;99.90;;;;;;4954279;28;20407;-73
2022/06/15 08:35:13;;;;;;;1999.90;999.90;;;21.60;99.90;;;;;;4954116;28;20524;-73
2022/06/15 08:37:38;;;;;;;1999.90;999.90;;;21.70;99.90;;;;;;4953971;28;20182;-73
2022/06/15 08:40:05;;;;;;;1999.90;999.90;;;21.70;99.90;;;;;;4954113;28;20421;-73
2022/06/15 08:42:56;;;;;;;1999.90;999.90;;;21.90;99.90;;;;;;4954067;28;20178;-73
2022/06/15 08:45:35;;;;;;;1999.90;999.90;;;22.00;99.90;;;;;;4954113;28;20547;-73
2022/06/15 08:48:09;;;;;;;1999.90;999.90;;;22.10;99.90;;;;;;4953763;28;20369;-73
2022/06/15 08:51:12;;;;;;;1999.90;999.90;;;22.30;99.90;;;;;;4953952;28;21118;-73
2022/06/15 08:53:51;;;;;;;1999.90;999.90;;;22.30;99.90;;;;;;4953976;28;20437;-74
2022/06/15 08:56:29;;;;;;;1999.90;999.90;;;22.40;99.90;;;;;;4953624;28;20398;-74
2022/06/15 08:59:32;;;;;;;1999.90;999.90;;;22.40;99.90;;;;;;4953991;28;20380;-74
2022/06/15 09:02:12;;;;;;;1999.90;999.90;;;22.50;99.90;;;;;;4953833;29;20896;-74
2022/06/15 09:04:54;;;;;;;1999.90;999.90;;;22.70;99.90;;;;;;4953753;28;20439;-74
2022/06/15 09:07:28;;;;;;;1999.90;999.90;;;22.80;99.90;;;;;;4953445;28;20802;-74
2022/06/15 09:10:13;;;;;;;1999.90;999.90;;;22.70;99.90;;;;;;4953790;28;20420;-74
2022/06/15 09:13:00;;;;;;;1999.90;999.90;;;22.60;99.90;;;;;;4953892;28;20397;-74
2022/06/15 09:15:32;;;;;;;1999.90;999.90;;;22.50;99.90;;;;;;4953980;29;20413;-73
2022/06/15 09:18:04;;;;;;;1999.90;999.90;;;22.70;99.90;;;;;;4954058;28;20513;-73
2022/06/15 09:20:42;;;;;;;1999.90;999.90;;;22.90;99.90;;;;;;4957654;28;20492;-74
2022/06/15 09:23:31;;;;;;;1999.90;999.90;;;23.00;99.90;;;;;;4957584;28;20445;-74
2022/06/15 09:26:04;;;;;;;1999.90;999.90;;;23.20;99.90;;;;;;4957306;28;20525;-74
2022/06/15 09:29:04;;;;;;;1999.90;999.90;;;23.40;99.90;;;;;;4957532;28;20448;-74
2022/06/15 09:31:45;;;;;;;1999.90;999.90;;;23.70;99.90;;;;;;4957217;29;20429;-74
2022/06/15 09:34:18;;;;;;;1999.90;999.90;;;23.80;99.90;;;;;;4957451;28;20415;-75
2022/06/15 09:36:48;;;;;;;1999.90;999.90;;;24.00;99.90;;;;;;4956981;28;20458;-74
2022/06/15 09:39:15;;;;;;;1999.90;999.90;;;24.00;99.90;;;;;;4957531;28;20435;-74
2022/06/15 09:41:52;;;;;;;1999.90;999.90;;;24.00;99.90;;;;;;4957297;28;20391;-74
2022/06/15 09:44:40;;;;;;;1999.90;999.90;;;24.10;99.90;;;;;;4957231;28;20458;-74
2022/06/15 09:47:17;;;;;;;1999.90;999.90;;;24.40;99.90;;;;;;4956883;28;20418;-74
2022/06/15 09:49:52;;;;;;;1999.90;999.90;;;24.40;99.90;;;;;;4957226;28;20806;-73
2022/06/15 09:52:36;;;;;;;1999.90;999.90;;;24.40;99.90;;;;;;4957152;28;20394;-74
2022/06/15 09:55:26;;;;;;;1999.90;999.90;;;24.60;99.90;;;;;;4957074;28;20388;-75
2022/06/15 09:57:54;;;;;;;1999.90;999.90;;;24.50;99.90;;;;;;4956756;28;20411;-74
2022/06/15 10:00:20;;;;;;;1999.90;999.90;;;24.60;99.90;;;;;;4956900;28;20424;-73
2022/06/15 10:02:55;;;;;;;1999.90;999.90;;;24.60;99.90;;;;;;4956995;28;20373;-74
2022/06/15 10:05:27;;;;;;;1999.90;999.90;;;24.80;99.90;;;;;;4956766;28;20428;-74
2022/06/15 10:07:56;;;;;;;1999.90;999.90;;;25.00;99.90;;;;;;4956544;28;20433;-74
2022/06/15 10:10:30;;;;;;;1999.90;999.90;;;25.30;99.90;;;;;;4956946;28;20442;-74
2022/06/15 10:13:02;;;;;;;1999.90;999.90;;;25.50;99.90;;;;;;4956673;28;20413;-74
2022/06/15 10:15:40;;;;;;;1999.90;999.90;;;25.50;99.90;;;;;;4956719;28;20401;-74
2022/06/15 10:18:26;;;;;;;1999.90;999.90;;;25.40;99.90;;;;;;4956455;28;20912;-74
2022/06/15 10:21:04;;;;;;;1999.90;999.90;;;25.60;99.90;;;;;;4956622;28;20407;-74
2022/06/15 10:23:34;;;;;;;1999.90;999.90;;;25.60;97.10;;;;;;4956449;28;21003;-74
2022/06/15 10:26:01;;;;;;;1999.90;999.90;;;25.70;97.80;;;;;;4956174;28;20418;-74
2022/06/15 10:28:34;;;;;;;1999.90;999.90;;;26.00;97.10;;;;;;4956424;28;20407;-74
2022/06/15 10:31:04;;;;;;;1999.90;999.90;;;26.20;94.10;;;;;;4955387;28;20410;-73
2022/06/15 10:33:49;;;;;;;1999.90;999.90;;;26.20;90.60;;;;;;4956500;28;20490;-74
2022/06/15 10:36:26;;;;;;;1999.90;999.90;;;26.30;91.80;;;;;;4955842;28;20446;-74
2022/06/15 10:39:15;;;;;;;1999.90;999.90;;;26.30;90.60;;;;;;4956306;28;20398;-74
2022/06/15 10:41:46;;;;;;;1999.90;999.90;;;26.40;90.20;;;;;;4956277;28;20428;-74
2022/06/15 10:44:27;;;;;;;1999.90;999.90;;;26.40;90.10;;;;;;4956011;28;20537;-74
2022/06/15 10:46:56;;;;;;;1999.90;999.90;;;26.40;91.50;;;;;;4954860;29;20986;-74
2022/06/15 10:49:23;;;;;;;1999.90;999.90;;;26.40;92.30;;;;;;4958418;28;20410;-75
2022/06/15 10:51:49;;;;;;;1999.90;999.90;;;26.60;87.10;;;;;;4958539;28;20410;-74
2022/06/15 10:54:32;;;;;;;1999.90;999.90;;;26.70;79.40;;;;;;4959943;28;20397;-75
2022/06/15 11:03:24;;;;;;;1999.90;999.90;;;27.30;67.80;;;;;;4959797;29;20433;-75
2022/06/15 11:05:53;;;;;;;1999.90;999.90;;;27.50;71.50;;;;;;4959340;28;20433;-75
2022/06/15 11:08:26;;;;;;;1999.90;999.90;;;27.80;62.30;;;;;;4958360;28;20506;-75
2022/06/15 11:11:21;;;;;;;1999.90;999.90;;;27.50;60.60;;;;;;4959067;28;20806;-75
2022/06/15 11:14:12;;;;;;;1999.90;999.90;;;27.30;66.00;;;;;;4958514;28;20422;-75
2022/06/15 11:19:26;;;;;;;1999.90;999.90;;;27.50;67.00;;;;;;4958480;29;20437;-73
2022/06/15 11:21:56;;;;;;;1999.90;999.90;;;27.50;65.70;;;;;;4958094;28;20414;-75
2022/06/15 11:24:28;;;;;;;1999.90;999.90;;;27.80;61.50;;;;;;4958348;28;20488;-75
2022/06/15 11:26:56;;;;;;;1999.90;999.90;;;27.90;57.50;;;;;;4958680;28;20790;-75
2022/06/15 11:29:37;;;;;;;1999.90;999.90;;;28.10;59.40;;;;;;4957467;28;20411;-75
2022/06/15 11:32:41;;;;;;;1999.90;999.90;;;28.30;55.90;;;;;;4957911;28;20898;-75
2022/06/15 11:35:12;;;;;;;1999.90;999.90;;;28.30;53.30;;;;;;4957307;28;20414;-73
2022/06/15 11:37:44;;;;;;;1999.90;999.90;;;28.40;52.90;;;;;;4957202;28;21050;-74
2022/06/15 11:40:47;;;;;;;1999.90;999.90;;;28.40;52.30;;;;;;4958309;28;20840;-73
2022/06/15 11:43:21;;;;;;;1999.90;999.90;;;28.70;55.10;;;;;;4955011;29;20920;-73
2022/06/15 11:46:07;;;;;;;1999.90;999.90;;;28.90;51.90;;;;;;4957959;28;20493;-70
2022/06/15 11:48:59;;;;;;;1999.90;999.90;;;29.20;53.20;;;;;;4957332;29;20906;-73
2022/06/15 11:51:54;;;;;;;1999.90;999.90;;;29.40;49.20;;;;;;4956879;29;20414;-73
2022/06/15 11:54:47;;;;;;;1999.90;999.90;;;29.40;44.90;;;;;;4957395;28;20498;-71
2022/06/15 11:57:21;;;;;;;1999.90;999.90;;;29.40;46.50;;;;;;4957608;28;20457;-73
2022/06/15 12:00:08;;;;;;;1999.90;999.90;;;29.50;44.80;;;;;;4957965;28;20975;-74
2022/06/15 12:02:51;;;;;;;1999.90;999.90;;;29.80;45.30;;;;;;4955838;28;20466;-72
2022/06/15 12:05:17;;;;;;;1999.90;999.90;;;29.90;42.50;;;;;;4957470;28;20458;-74
2022/06/15 12:08:04;;;;;;;1999.90;999.90;;;30.10;41.30;;;;;;4956979;28;20430;-73
2022/06/15 12:10:52;;;;;;;1999.90;999.90;;;30.40;41.30;;;;;;4956337;29;20522;-73
2022/06/15 12:13:24;;;;;;;1999.90;999.90;;;30.80;36.80;;;;;;4956575;28;20487;-73
2022/06/15 12:16:06;;;;;;;1999.90;999.90;;;31.10;35.70;;;;;;4957030;28;20473;-74
2022/06/15 12:18:41;;;;;;;1999.90;999.90;;;31.90;35.20;;;;;;4957177;28;20422;-73
2022/06/15 12:21:40;;;;;;;1999.90;999.90;;;32.60;32.10;;;;;;4957576;28;20406;-71
2022/06/15 12:24:19;;;;;;;1999.90;999.90;;;33.60;31.10;;;;;;4956235;29;20454;-73
2022/06/15 12:27:11;;;;;;;1999.90;999.90;;;33.80;23.80;;;;;;4957032;28;20423;-74
2022/06/15 12:30:06;;;;;;;1999.90;999.90;;;33.90;23.20;;;;;;4959051;28;20793;-72
2022/06/15 12:32:57;;;;;;;1999.90;999.90;;;34.60;22.10;;;;;;4958097;28;20490;-72
2022/06/15 12:35:35;;;;;;;1999.90;999.90;;;35.40;20.90;;;;;;4953917;29;20510;-72